Greater Peoria Regional Airport
KPIA : now visible

Airfield :











YOU CAN JOIN US ON...

 
LOGIN :

Register | Disclaimer

   EN    FR    IT 

 









Legend :    VFR   Marginal VFR   IFR   Intensive IFR   Very Intensive IFR
Visi :
Ceiling :
>= 8 km
>= 3000ft
5 to 8 km
1000 to 3000 ft
1500m to 5 km
500 to 1000 ft
800 to 1500m
200 to 500 ft
< 800m
< 200 ft
Symbols :   Thunderstorms  Fog  Heavy snow  Heavy precipitations  Wind > 20 kt







- Airport Elevation : 660 ft
- IATA code : PIA


KPIA - Greater Peoria Regional

CURRENT METAR :
  • 161854Z 08009KT 10SM BKN020 M03/M08 A3006 RMK AO2 SLP191 T10281078

EXPIRED METARs :
  • 161811Z 06012KT 10SM BKN020 M02/M08 A3009 RMK AO2 T10221078
  • 161754Z 08011KT 10SM SCT019 M02/M08 A3009 RMK AO2 SLP200 T10221078 11022 21122 58017
  • 161654Z 10008KT 10SM CLR M04/M09 A3012 RMK AO2 SLP210 T10441094

TAF KPIA
Valid from the 16 at 18:00 until the 17 at 18:00 UTC


161747Z 1618/1718 07007KT P6SM BKN200
TEMPO 1618/1622 OVC015
FM170200 08010KT P6SM SCT080 BKN200
FM170700 09010KT 4SM -SN BKN035 OVC060
FM170900 08010KT 1 1/2SM -SN BR OVC015
FM171400 09010KT 2SM -SN OVC012
KZAU FIR / North America



MET'MAP, your aeronautical weather chart ! - Copyright ORBIFLY December 2007 - Disclaimer

ORBIFLY MET'MAP TEAM :

Programming & Development : Alexandra Zaïnal
Concept & Development : Baudouin d'Aumeries
Co-Development & Prog : Marc-Olivier Méhu
Technical & hardware support : Manuel Goepfert

Contact : metmap@orbifly.com




SOURCES & CREDITS :

   NOAA       Earth
Advisory